Time;durP1;ratioP1;P1;durP2;ratioP2;P2;SDS_P1;SDS_P2;PMS_P1;PMS_P2;Temp;Humidity;BMP_temperature;BMP_pressure;BME280_temperature;BME280_humidity;BME280_pressure;Samples;Min_cycle;Max_cycle;Signal;HPM_P1;HPM_P2
2021/03/25 00:01:46;;;;;;;;;;;;;;;-5.51;92.25;93220.81;5012128;28;19921;-78
2021/03/25 00:04:13;;;;;;;;;;;;;;;-5.50;92.76;93229.13;5012070;28;19925;-78
2021/03/25 00:06:42;;;;;;;;;;;;;;;-5.51;92.64;93220.03;5011654;28;19921;-78
2021/03/25 00:09:08;;;;;;;;;;;;;;;-5.52;90.63;93223.44;5011343;28;19922;-78
2021/03/25 00:11:34;;;;;;;;;;;;;;;-5.58;90.12;93221.38;5011847;28;19925;-78
2021/03/25 00:14:01;;;;;;;;;;;;;;;-5.65;91.15;93226.81;5011409;28;20382;-78
2021/03/25 00:16:28;;;;;;;;;;;;;;;-5.68;90.79;93229.56;5011727;28;20402;-77
2021/03/25 00:18:54;;;;;;;;;;;;;;;-5.73;89.91;93219.09;5011615;28;20347;-77
2021/03/25 00:21:20;;;;;;;;;;;;;;;-5.81;91.80;93218.81;5011516;28;19921;-77
2021/03/25 00:23:46;;;;;;;;;;;;;;;-5.85;92.02;93213.25;5011302;28;20005;-77
2021/03/25 00:26:12;;;;;;;;;;;;;;;-5.95;89.79;93214.81;5011526;28;19933;-77
2021/03/25 00:28:38;;;;;;;;;;;;;;;-6.24;89.33;93221.03;5011045;28;20378;-77
2021/03/25 00:31:05;;;;;;;;;;;;;;;-6.33;90.51;93224.16;5011230;28;19929;-77
2021/03/25 00:33:31;;;;;;;;;;;;;;;-6.38;92.20;93219.47;5011080;28;19969;-77
2021/03/25 00:35:57;;;;;;;;;;;;;;;-6.36;94.02;93216.84;5011169;28;19921;-77
2021/03/25 00:38:23;;;;;;;;;;;;;;;-6.28;95.83;93213.81;5011342;28;19925;-77
2021/03/25 00:40:50;;;;;;;;;;;;;;;-6.17;96.40;93213.88;5011263;28;19932;-77
2021/03/25 00:43:17;;;;;;;;;;;;;;;-6.09;95.49;93214.13;5011015;28;19929;-77
2021/03/25 00:45:45;;;;;;;;;;;;;;;-6.10;93.15;93216.75;5011125;28;19922;-77
2021/03/25 00:48:12;;;;;;;;;;;;;;;-6.15;93.08;93219.56;5010971;28;20370;-77
2021/03/25 00:50:40;;;;;;;;;;;;;;;-6.15;92.63;93222.06;5010693;28;19925;-77
2021/03/25 00:53:07;;;;;;;;;;;;;;;-6.18;92.18;93218.09;5010796;28;20274;-77
2021/03/25 00:55:33;;;;;;;;;;;;;;;-6.18;93.57;93217.28;5010986;28;19921;-77
2021/03/25 00:57:59;;;;;;;;;;;;;;;-6.15;91.36;93222.06;5010874;28;19921;-77
2021/03/25 01:00:26;;;;;;;;;;;;;;;-6.25;90.28;93221.13;5019945;28;19971;-77
2021/03/25 01:02:53;;;;;;;;;;;;;;;-6.31;91.20;93219.81;5030196;28;19921;-77
2021/03/25 01:05:21;;;;;;;;;;;;;;;-6.25;93.20;93216.13;5030156;28;19960;-77
2021/03/25 01:10:51;;;;;;;;;;;;;;;-6.26;91.59;93215.31;5019565;28;19924;-77
2021/03/25 01:13:18;;;;;;;;;;;;;;;-6.29;92.88;93217.22;5019906;28;19921;-77
2021/03/25 01:15:45;;;;;;;;;;;;;;;-6.36;92.75;93211.84;5021042;28;19929;-77
2021/03/25 01:18:12;;;;;;;;;;;;;;;-6.36;92.87;93207.66;5018937;28;20035;-77
2021/03/25 01:20:39;;;;;;;;;;;;;;;-6.39;91.86;93209.59;5013828;28;19929;-77
2021/03/25 01:23:06;;;;;;;;;;;;;;;-6.54;89.53;93211.44;5010274;28;19979;-77
2021/03/25 01:25:33;;;;;;;;;;;;;;;-6.67;90.47;93219.00;5010371;28;19921;-77
2021/03/25 01:28:00;;;;;;;;;;;;;;;-6.68;91.43;93213.19;5010107;28;19931;-78
2021/03/25 01:30:29;;;;;;;;;;;;;;;-6.74;91.81;93208.59;5010427;28;19930;-78
2021/03/25 01:32:55;;;;;;;;;;;;;;;-6.75;92.33;93210.28;5010448;28;19921;-78
2021/03/25 01:35:21;;;;;;;;;;;;;;;-6.80;91.50;93209.03;5010053;28;20375;-78
2021/03/25 01:37:49;;;;;;;;;;;;;;;-6.96;90.25;93204.28;5010299;28;19943;-78
2021/03/25 01:40:18;;;;;;;;;;;;;;;-7.06;91.20;93207.41;5010062;28;19936;-79
2021/03/25 01:42:44;;;;;;;;;;;;;;;-7.15;91.59;93205.50;5010021;28;19928;-79
2021/03/25 01:45:36;;;;;;;;;;;;;;;-7.11;93.77;93202.72;5009879;28;19921;-79
2021/03/25 01:48:02;;;;;;;;;;;;;;;-7.15;93.98;93200.50;5010249;28;20285;-79
2021/03/25 01:50:28;;;;;;;;;;;;;;;-7.24;93.43;93194.44;5010099;28;20297;-79
2021/03/25 01:53:01;;;;;;;;;;;;;;;-7.30;93.40;93194.84;5009940;28;19921;-78
2021/03/25 01:55:34;;;;;;;;;;;;;;;-7.29;95.62;93199.75;5009834;28;20341;-79
2021/03/25 01:58:18;;;;;;;;;;;;;;;-7.27;95.59;93204.63;5009981;28;19922;-78
2021/03/25 02:00:46;;;;;;;;;;;;;;;-7.23;96.96;93198.53;5009684;28;19929;-78
2021/03/25 02:03:23;;;;;;;;;;;;;;;-7.20;96.76;93205.00;5009803;28;19921;-78
2021/03/25 02:05:54;;;;;;;;;;;;;;;-7.13;96.93;93204.50;5011322;28;19922;-79
2021/03/25 02:08:28;;;;;;;;;;;;;;;-7.08;96.09;93205.91;5014037;28;19969;-79
2021/03/25 02:11:02;;;;;;;;;;;;;;;-7.08;95.87;93209.22;5014030;28;19943;-78
2021/03/25 02:13:31;;;;;;;;;;;;;;;-7.08;95.32;93213.38;5014042;28;19921;-78
2021/03/25 02:16:01;;;;;;;;;;;;;;;-7.05;95.81;93213.97;5013778;28;19922;-77
2021/03/25 02:18:30;;;;;;;;;;;;;;;-7.06;95.53;93212.38;5013849;28;19925;-78
2021/03/25 02:21:19;;;;;;;;;;;;;;;-6.99;95.62;93218.56;5013966;28;19971;-77
2021/03/25 02:23:57;;;;;;;;;;;;;;;-6.93;93.99;93216.56;5013781;28;19921;-78
2021/03/25 02:26:28;;;;;;;;;;;;;;;-7.00;93.50;93216.16;5013448;28;19925;-78
2021/03/25 02:29:13;;;;;;;;;;;;;;;-6.98;92.82;93227.63;5013529;28;20375;-77
2021/03/25 02:31:41;;;;;;;;;;;;;;;-7.06;92.79;93231.56;5013362;28;20322;-77
2021/03/25 02:34:09;;;;;;;;;;;;;;;-7.05;92.76;93226.47;5013386;28;19925;-78
2021/03/25 02:36:38;;;;;;;;;;;;;;;-7.13;93.24;93234.47;5013245;28;19932;-79
2021/03/25 02:39:07;;;;;;;;;;;;;;;-7.14;92.76;93237.88;5013295;28;20473;-78
2021/03/25 02:41:36;;;;;;;;;;;;;;;-7.14;92.67;93237.88;5013250;28;20370;-78
2021/03/25 02:44:05;;;;;;;;;;;;;;;-7.17;93.46;93245.53;5013188;28;19936;-79
2021/03/25 02:46:32;;;;;;;;;;;;;;;-7.15;93.18;93240.47;5013466;28;19948;-77
2021/03/25 02:49:03;;;;;;;;;;;;;;;-7.20;94.12;93243.25;5012941;28;19928;-77
2021/03/25 02:51:31;;;;;;;;;;;;;;;-7.19;93.44;93252.34;5013095;28;20310;-77
2021/03/25 02:53:57;;;;;;;;;;;;;;;-7.20;93.12;93252.44;5012840;28;19921;-76
2021/03/25 02:56:25;;;;;;;;;;;;;;;-7.25;92.48;93252.75;5013206;28;19932;-76
2021/03/25 02:58:55;;;;;;;;;;;;;;;-7.33;92.52;93258.25;5013269;28;19921;-77
2021/03/25 03:01:21;;;;;;;;;;;;;;;-7.29;92.86;93263.81;5013071;28;20298;-78
2021/03/25 03:03:50;;;;;;;;;;;;;;;-7.32;93.06;93264.81;5013176;28;19929;-77
2021/03/25 03:06:20;;;;;;;;;;;;;;;-7.33;92.65;93269.94;5012453;28;19926;-77
2021/03/25 03:08:48;;;;;;;;;;;;;;;-7.41;92.12;93267.94;5012832;28;19921;-77
2021/03/25 03:11:17;;;;;;;;;;;;;;;-7.41;94.30;93271.22;5012914;28;19921;-77
2021/03/25 03:13:45;;;;;;;;;;;;;;;-7.42;94.09;93271.31;5012906;28;19968;-77
2021/03/25 03:16:14;;;;;;;;;;;;;;;-7.51;92.57;93273.50;5012660;28;20287;-78
2021/03/25 03:18:42;;;;;;;;;;;;;;;-7.46;94.39;93274.91;5012781;28;20374;-77
2021/03/25 03:21:11;;;;;;;;;;;;;;;-7.48;94.53;93276.69;5012368;28;19969;-77
2021/03/25 03:23:38;;;;;;;;;;;;;;;-7.41;95.25;93272.94;5012483;28;19932;-78
2021/03/25 03:26:06;;;;;;;;;;;;;;;-7.44;93.20;93281.41;5012704;28;19922;-77
2021/03/25 03:28:35;;;;;;;;;;;;;;;-7.35;94.78;93277.53;5012334;28;19921;-77
2021/03/25 03:31:04;;;;;;;;;;;;;;;-7.27;94.39;93277.03;5012315;28;20391;-77
2021/03/25 03:33:32;;;;;;;;;;;;;;;-7.24;94.22;93281.81;5012262;28;20404;-79
2021/03/25 03:36:01;;;;;;;;;;;;;;;-7.22;94.62;93290.00;5012342;28;19921;-76
2021/03/25 03:38:35;;;;;;;;;;;;;;;-7.22;94.87;93282.53;5012192;28;19921;-78
2021/03/25 03:41:03;;;;;;;;;;;;;;;-7.18;94.19;93288.88;5012489;28;19921;-78
2021/03/25 03:43:29;;;;;;;;;;;;;;;-7.14;95.02;93285.28;5012396;28;20294;-78
2021/03/25 03:45:58;;;;;;;;;;;;;;;-7.11;94.04;93281.81;5012169;28;19925;-78
2021/03/25 03:48:28;;;;;;;;;;;;;;;-7.09;93.16;93294.97;5012309;28;19926;-78
2021/03/25 03:50:57;;;;;;;;;;;;;;;-7.07;92.80;93285.69;5012290;28;19928;-79
2021/03/25 03:53:25;;;;;;;;;;;;;;;-7.04;94.50;93282.97;5012181;28;19936;-78
2021/03/25 03:55:52;;;;;;;;;;;;;;;-7.07;93.87;93282.41;5012061;28;20352;-78
2021/03/25 03:58:23;;;;;;;;;;;;;;;-7.13;92.38;93289.38;5011618;28;19968;-78
2021/03/25 04:00:54;;;;;;;;;;;;;;;-7.13;93.47;93291.88;5011726;28;20425;-77
2021/03/25 04:03:23;;;;;;;;;;;;;;;-7.11;93.24;93292.59;5011537;28;19925;-77
2021/03/25 04:05:52;;;;;;;;;;;;;;;-7.03;93.56;93291.28;5011721;28;19922;-77
2021/03/25 04:08:22;;;;;;;;;;;;;;;-6.99;92.98;93297.69;5011590;28;19922;-78
2021/03/25 04:10:52;;;;;;;;;;;;;;;-7.04;93.07;93295.47;5011913;28;19931;-76
2021/03/25 04:13:24;;;;;;;;;;;;;;;-7.08;93.48;93296.59;5011641;28;19930;-78
2021/03/25 04:15:52;;;;;;;;;;;;;;;-7.09;92.85;93299.97;5011460;28;19926;-77
2021/03/25 04:18:21;;;;;;;;;;;;;;;-7.11;93.24;93291.78;5011491;28;19947;-78
2021/03/25 04:20:51;;;;;;;;;;;;;;;-7.11;93.25;93295.09;5011584;28;19921;-77
2021/03/25 04:23:19;;;;;;;;;;;;;;;-7.11;92.98;93294.28;5011432;28;19979;-78
2021/03/25 04:25:49;;;;;;;;;;;;;;;-7.09;93.28;93294.19;5011144;28;20374;-77
2021/03/25 04:28:20;;;;;;;;;;;;;;;-6.98;93.56;93302.56;5010688;28;19922;-78
2021/03/25 04:30:51;;;;;;;;;;;;;;;-6.98;93.45;93299.28;5007229;28;19922;-77
2021/03/25 04:33:19;;;;;;;;;;;;;;;-6.92;94.44;93301.38;5009223;28;19921;-78
2021/03/25 04:35:46;;;;;;;;;;;;;;;-6.98;93.12;93309.25;5011098;28;20378;-77
2021/03/25 04:38:13;;;;;;;;;;;;;;;-6.94;94.32;93309.84;5011166;28;19922;-77
2021/03/25 04:40:40;;;;;;;;;;;;;;;-6.98;93.75;93311.75;5011047;28;19921;-77
2021/03/25 04:43:06;;;;;;;;;;;;;;;-7.02;93.90;93316.16;5010835;28;20005;-79
2021/03/25 04:45:43;;;;;;;;;;;;;;;-7.07;92.83;93313.16;5010791;28;19921;-78
2021/03/25 04:48:12;;;;;;;;;;;;;;;-7.46;90.75;93328.09;5011101;28;19925;-77
2021/03/25 04:50:39;;;;;;;;;;;;;;;-7.58;92.31;93319.72;5010837;28;19964;-77
2021/03/25 04:53:07;;;;;;;;;;;;;;;-7.34;95.05;93330.72;5010953;28;19928;-77
2021/03/25 04:55:34;;;;;;;;;;;;;;;-7.21;94.71;93329.03;5010785;28;19926;-77
2021/03/25 04:58:01;;;;;;;;;;;;;;;-7.12;94.40;93335.13;5010760;28;19921;-77
2021/03/25 05:00:28;;;;;;;;;;;;;;;-7.17;92.71;93334.63;5011168;28;19925;-78
2021/03/25 05:02:55;;;;;;;;;;;;;;;-7.34;91.59;93345.69;5010550;28;19925;-77
2021/03/25 05:05:23;;;;;;;;;;;;;;;-7.31;92.56;93346.28;5010470;28;19922;-77
2021/03/25 05:07:53;;;;;;;;;;;;;;;-7.39;92.69;93351.78;5010586;28;20375;-77
2021/03/25 05:10:22;;;;;;;;;;;;;;;-7.29;93.15;93356.19;5010272;28;19925;-77
2021/03/25 05:12:50;;;;;;;;;;;;;;;-7.34;92.18;93356.47;5010798;28;19925;-76
2021/03/25 05:15:18;;;;;;;;;;;;;;;-7.33;91.42;93358.06;5010488;28;19929;-76
2021/03/25 05:17:48;;;;;;;;;;;;;;;-7.28;92.80;93367.75;5010239;28;19926;-77
2021/03/25 05:20:17;;;;;;;;;;;;;;;-7.21;93.72;93368.16;5010260;28;19929;-77
2021/03/25 05:22:51;;;;;;;;;;;;;;;-7.05;94.19;93368.00;5010489;28;19971;-76
2021/03/25 05:25:23;;;;;;;;;;;;;;;-6.96;93.53;93356.63;5010227;28;20353;-76
2021/03/25 05:27:53;;;;;;;;;;;;;;;-6.81;94.39;93360.59;5010186;28;19921;-75
2021/03/25 05:30:20;;;;;;;;;;;;;;;-6.76;91.81;93362.81;5009947;28;19926;-75
2021/03/25 05:32:48;;;;;;;;;;;;;;;-6.64;92.73;93363.66;5010438;28;19921;-76
2021/03/25 05:35:15;;;;;;;;;;;;;;;-6.52;91.80;93367.06;5010244;28;20068;-78
2021/03/25 05:37:42;;;;;;;;;;;;;;;-6.47;90.53;93355.06;5010435;28;19925;-78
2021/03/25 05:40:13;;;;;;;;;;;;;;;-6.33;90.85;93356.63;5009291;28;19921;-79
2021/03/25 05:42:43;;;;;;;;;;;;;;;-6.20;90.84;93356.59;5009801;28;19993;-80
2021/03/25 05:45:27;;;;;;;;;;;;;;;-6.03;90.07;93362.94;5009889;28;20375;-81
2021/03/25 05:48:01;;;;;;;;;;;;;;;-5.92;88.43;93362.97;4999341;28;19921;-80
2021/03/25 05:50:33;;;;;;;;;;;;;;;-5.80;88.17;93373.03;5010100;28;20259;-79
2021/03/25 05:53:08;;;;;;;;;;;;;;;-5.59;88.39;93375.75;5010033;28;19922;-81
2021/03/25 05:55:42;;;;;;;;;;;;;;;-5.39;88.47;93373.53;5010093;28;19922;-80
2021/03/25 05:58:12;;;;;;;;;;;;;;;-5.17;88.02;93372.03;5009823;28;20020;-79
2021/03/25 06:00:42;;;;;;;;;;;;;;;-4.82;85.82;93378.69;5010055;28;20340;-79
2021/03/25 06:03:10;;;;;;;;;;;;;;;-4.48;83.92;93376.22;5010018;28;19931;-79
2021/03/25 06:05:36;;;;;;;;;;;;;;;-4.17;83.38;93376.41;5009786;28;19926;-80
2021/03/25 06:08:09;;;;;;;;;;;;;;;-3.83;82.25;93382.28;5010455;28;19944;-80
2021/03/25 06:10:47;;;;;;;;;;;;;;;-3.56;80.21;93386.88;5010121;28;19921;-80
2021/03/25 06:13:31;;;;;;;;;;;;;;;-3.28;79.16;93384.72;5010041;28;20298;-80
2021/03/25 06:16:04;;;;;;;;;;;;;;;-2.97;78.60;93384.81;5009488;28;19925;-78
2021/03/25 06:18:44;;;;;;;;;;;;;;;-2.71;76.55;93383.66;5009639;28;19921;-76
2021/03/25 06:21:15;;;;;;;;;;;;;;;-2.36;76.01;93392.53;5009958;28;19928;-77
2021/03/25 06:23:59;;;;;;;;;;;;;;;-2.12;74.89;93386.41;5009917;28;19922;-77
2021/03/25 06:26:34;;;;;;;;;;;;;;;-1.78;73.82;93385.28;5009663;28;20330;-77
2021/03/25 06:29:03;;;;;;;;;;;;;;;-1.43;73.04;93384.00;5009654;28;19968;-77
2021/03/25 06:31:43;;;;;;;;;;;;;;;-1.17;72.00;93382.69;5009762;28;19922;-77
2021/03/25 06:34:14;;;;;;;;;;;;;;;-0.88;71.26;93384.38;5009747;28;20315;-77
2021/03/25 06:36:44;;;;;;;;;;;;;;;-0.74;71.31;93383.94;5009333;28;19925;-76
2021/03/25 06:39:16;;;;;;;;;;;;;;;-0.45;69.85;93388.16;5009674;28;19944;-76
2021/03/25 06:41:45;;;;;;;;;;;;;;;-0.31;69.06;93391.16;5009405;28;19932;-76
2021/03/25 06:44:14;;;;;;;;;;;;;;;-0.10;68.15;93397.72;5009375;28;19922;-77
2021/03/25 06:46:42;;;;;;;;;;;;;;;0.04;68.10;93399.75;5009375;28;19921;-77
2021/03/25 06:49:17;;;;;;;;;;;;;;;0.24;67.49;93399.69;5009434;28;19921;-77
2021/03/25 06:51:43;;;;;;;;;;;;;;;0.50;67.25;93401.50;5010759;28;20294;-77
2021/03/25 06:54:11;;;;;;;;;;;;;;;0.42;66.80;93396.38;5013166;28;19925;-77
2021/03/25 06:56:39;;;;;;;;;;;;;;;0.56;67.67;93398.44;5012858;28;19925;-78
2021/03/25 06:59:08;;;;;;;;;;;;;;;0.88;66.12;93387.00;5013026;28;19943;-78
2021/03/25 07:01:36;;;;;;;;;;;;;;;1.11;65.38;93385.75;5012846;28;19922;-77
2021/03/25 07:04:03;;;;;;;;;;;;;;;1.36;66.30;93380.84;5012992;28;19926;-77
2021/03/25 07:06:31;;;;;;;;;;;;;;;1.57;64.59;93378.75;5012927;28;19925;-76
2021/03/25 07:08:57;;;;;;;;;;;;;;;1.92;63.34;93378.78;5012357;28;19922;-77
2021/03/25 07:11:26;;;;;;;;;;;;;;;2.20;62.54;93382.81;5013031;28;19925;-78
2021/03/25 07:13:57;;;;;;;;;;;;;;;2.36;63.68;93375.25;5012942;28;19925;-78
2021/03/25 07:16:25;;;;;;;;;;;;;;;2.64;62.69;93375.00;5012444;28;19929;-77
2021/03/25 07:18:56;;;;;;;;;;;;;;;2.56;59.14;93379.25;5012372;28;19931;-77
2021/03/25 07:21:24;;;;;;;;;;;;;;;2.37;60.33;93378.59;5012317;28;19925;-77
2021/03/25 07:23:51;;;;;;;;;;;;;;;1.97;61.01;93375.78;5012422;28;20374;-77
2021/03/25 07:26:19;;;;;;;;;;;;;;;1.57;62.10;93373.69;5012341;28;20365;-77
2021/03/25 07:28:56;;;;;;;;;;;;;;;1.95;62.67;93375.91;5012558;28;19921;-77
2021/03/25 07:31:29;;;;;;;;;;;;;;;1.96;61.65;93380.06;5012163;28;20018;-77
2021/03/25 07:33:55;;;;;;;;;;;;;;;1.65;61.53;93384.81;5012425;28;19925;-77
2021/03/25 07:36:21;;;;;;;;;;;;;;;1.10;63.00;93390.00;5012440;28;19921;-78
2021/03/25 07:38:47;;;;;;;;;;;;;;;1.48;63.42;93389.00;5012182;28;19928;-78
2021/03/25 07:41:18;;;;;;;;;;;;;;;2.03;67.11;93382.75;5012482;28;19921;-78
2021/03/25 07:43:53;;;;;;;;;;;;;;;2.50;64.04;93386.53;5012483;28;20330;-75
2021/03/25 07:46:20;;;;;;;;;;;;;;;2.79;61.56;93387.06;5011985;28;19925;-75
2021/03/25 07:48:57;;;;;;;;;;;;;;;3.20;60.00;93389.59;5015239;28;19921;-75
2021/03/25 07:51:23;;;;;;;;;;;;;;;3.40;60.06;93391.00;5022679;28;19932;-75
2021/03/25 07:54:08;;;;;;;;;;;;;;;3.70;58.64;93398.91;5021323;28;19967;-75
2021/03/25 07:56:37;;;;;;;;;;;;;;;3.87;56.78;93386.94;5031497;28;19921;-76
2021/03/25 07:59:03;;;;;;;;;;;;;;;4.09;60.21;93392.28;5031791;28;19921;-76
2021/03/25 08:01:29;;;;;;;;;;;;;;;4.24;58.47;93393.16;5031533;28;19964;-76
2021/03/25 08:03:57;;;;;;;;;;;;;;;4.40;58.00;93388.97;5030555;28;20487;-76
2021/03/25 08:06:26;;;;;;;;;;;;;;;4.48;56.29;93390.66;5031840;28;19967;-76
2021/03/25 08:09:06;;;;;;;;;;;;;;;4.44;56.42;93385.13;5031664;28;19928;-76
2021/03/25 08:11:33;;;;;;;;;;;;;;;4.65;59.01;93384.53;5031409;28;19967;-76
2021/03/25 08:14:01;;;;;;;;;;;;;;;4.78;56.83;93385.72;5031052;28;19925;-76
2021/03/25 08:16:30;;;;;;;;;;;;;;;5.05;58.51;93381.84;5020903;28;19924;-76
2021/03/25 08:19:02;;;;;;;;;;;;;;;4.94;57.35;93380.53;5029100;28;19924;-76
2021/03/25 08:21:40;;;;;;;;;;;;;;;4.81;53.48;93380.28;5015260;28;20004;-76
2021/03/25 08:24:20;;;;;;;;;;;;;;;4.70;58.69;93371.31;5011578;28;19921;-76
2021/03/25 08:26:52;;;;;;;;;;;;;;;4.90;56.76;93370.84;5011260;28;20286;-76
2021/03/25 08:29:21;;;;;;;;;;;;;;;4.06;53.88;93377.34;5011292;28;19921;-75
2021/03/25 08:32:03;;;;;;;;;;;;;;;4.04;55.38;93374.97;5011391;28;19972;-76
2021/03/25 08:34:45;;;;;;;;;;;;;;;4.39;58.08;93369.56;5011343;28;20359;-76
2021/03/25 08:37:21;;;;;;;;;;;;;;;4.60;58.03;93370.72;5011126;28;20294;-77
2021/03/25 08:39:50;;;;;;;;;;;;;;;4.78;53.44;93360.28;5011245;28;20008;-77
2021/03/25 08:42:32;;;;;;;;;;;;;;;4.49;52.49;93365.06;5010686;28;20283;-78
2021/03/25 08:45:10;;;;;;;;;;;;;;;4.14;53.02;93362.06;5019419;28;19921;-75
2021/03/25 08:47:41;;;;;;;;;;;;;;;4.07;56.37;93364.47;5019089;28;20268;-78
2021/03/25 08:50:28;;;;;;;;;;;;;;;3.58;55.52;93358.63;5019845;28;19925;-76
2021/03/25 08:52:55;;;;;;;;;;;;;;;3.14;58.78;93356.47;5021474;28;20397;-77
2021/03/25 08:55:24;;;;;;;;;;;;;;;3.19;62.21;93356.75;5020573;28;19922;-77
2021/03/25 08:57:52;;;;;;;;;;;;;;;3.52;61.35;93354.16;5019315;28;20677;-75
2021/03/25 09:00:21;;;;;;;;;;;;;;;4.05;59.73;93353.69;5019372;28;19921;-76
2021/03/25 09:02:50;;;;;;;;;;;;;;;4.33;60.05;93355.78;5019595;28;20361;-75
2021/03/25 09:05:19;;;;;;;;;;;;;;;4.80;57.60;93348.16;5025089;28;19995;-76
2021/03/25 09:07:47;;;;;;;;;;;;;;;5.03;58.11;93350.69;5014082;28;19928;-76
2021/03/25 09:10:22;;;;;;;;;;;;;;;4.93;57.45;93350.13;5010527;28;19968;-76
2021/03/25 09:12:48;;;;;;;;;;;;;;;4.80;55.96;93359.16;5018474;28;19925;-76
2021/03/25 09:15:15;;;;;;;;;;;;;;;5.07;57.75;93351.94;5020114;28;19922;-76
2021/03/25 09:17:47;;;;;;;;;;;;;;;5.26;57.79;93349.88;5021209;28;19921;-76
2021/03/25 09:20:19;;;;;;;;;;;;;;;5.17;55.83;93356.78;5020416;28;19925;-76
2021/03/25 09:22:48;;;;;;;;;;;;;;;5.18;55.73;93360.09;5018838;28;19929;-76
2021/03/25 09:25:29;;;;;;;;;;;;;;;4.91;55.16;93364.81;5019176;28;19921;-76
2021/03/25 09:27:56;;;;;;;;;;;;;;;4.59;56.77;93356.44;5019140;28;19921;-76
2021/03/25 09:30:29;;;;;;;;;;;;;;;4.50;56.47;93355.69;5020911;28;19925;-76
2021/03/25 09:33:15;;;;;;;;;;;;;;;4.40;54.87;93361.00;5012395;28;19925;-76
2021/03/25 09:35:43;;;;;;;;;;;;;;;4.47;54.75;93354.28;5010485;28;19929;-76
2021/03/25 09:38:11;;;;;;;;;;;;;;;4.13;59.56;93346.00;5010290;28;20056;-76
2021/03/25 09:40:46;;;;;;;;;;;;;;;3.79;57.85;93347.09;5009754;28;19967;-76
2021/03/25 09:43:45;;;;;;;;;;;;;;;3.73;58.41;93357.94;5010355;28;19922;-76
2021/03/25 09:46:27;;;;;;;;;;;;;;;2.90;57.79;93361.38;5009754;28;19932;-76
2021/03/25 09:48:54;;;;;;;;;;;;;;;2.76;59.46;93360.28;5010136;28;19921;-76
2021/03/25 09:51:22;;;;;;;;;;;;;;;2.59;58.95;93356.91;5010373;28;19921;-76
2021/03/25 09:53:50;;;;;;;;;;;;;;;2.48;58.62;93359.75;5022293;28;19921;-76
2021/03/25 09:56:32;;;;;;;;;;;;;;;2.48;62.69;93369.91;5029343;28;19932;-76
2021/03/25 09:58:58;;;;;;;;;;;;;;;2.21;60.70;93367.47;5029197;28;19921;-76
2021/03/25 10:01:41;;;;;;;;;;;;;;;2.40;61.13;93365.59;5029823;28;19925;-75
2021/03/25 10:04:39;;;;;;;;;;;;;;;2.65;60.11;93363.91;5029793;28;19932;-76
2021/03/25 10:07:19;;;;;;;;;;;;;;;2.64;60.20;93364.84;5029197;28;20024;-76
2021/03/25 10:09:54;;;;;;;;;;;;;;;3.00;61.54;93362.97;5026086;28;19921;-76
2021/03/25 10:12:39;;;;;;;;;;;;;;;3.21;59.22;93358.19;5009815;28;19932;-76
2021/03/25 10:15:32;;;;;;;;;;;;;;;2.71;54.85;93369.28;5009948;28;19945;-76
2021/03/25 10:17:59;;;;;;;;;;;;;;;2.16;56.95;93371.41;5009409;28;20004;-76
2021/03/25 10:20:49;;;;;;;;;;;;;;;2.10;58.12;93372.81;5009927;28;19922;-75
2021/03/25 10:23:17;;;;;;;;;;;;;;;2.20;59.37;93372.69;5004167;28;19976;-75
2021/03/25 10:25:44;;;;;;;;;;;;;;;2.26;57.82;93380.47;5009526;28;20397;-75
2021/03/25 10:28:13;;;;;;;;;;;;;;;2.67;58.60;93376.41;5013478;28;19925;-75
2021/03/25 10:30:39;;;;;;;;;;;;;;;2.84;57.39;93374.72;5013477;28;20302;-76
2021/03/25 10:33:06;;;;;;;;;;;;;;;3.05;58.29;93370.88;5013639;28;19921;-76
2021/03/25 10:35:34;;;;;;;;;;;;;;;2.86;58.56;93372.78;5013544;28;19925;-76
2021/03/25 10:38:03;;;;;;;;;;;;;;;2.65;58.83;93379.09;5013407;28;19925;-76
2021/03/25 10:40:32;;;;;;;;;;;;;;;2.61;58.40;93372.78;5013222;28;19932;-76
2021/03/25 10:43:00;;;;;;;;;;;;;;;2.72;62.07;93381.03;5013323;28;20367;-76
2021/03/25 10:45:32;;;;;;;;;;;;;;;3.01;60.62;93374.72;5013349;28;19921;-76
2021/03/25 10:47:59;;;;;;;;;;;;;;;3.02;57.93;93378.84;5029928;28;20326;-76
2021/03/25 10:50:31;;;;;;;;;;;;;;;2.46;57.31;93380.19;5032798;28;19920;-76
2021/03/25 10:53:00;;;;;;;;;;;;;;;2.60;59.04;93378.00;5032919;28;19937;-76
2021/03/25 10:55:29;;;;;;;;;;;;;;;2.89;59.30;93376.75;5032735;28;20382;-76
2021/03/25 10:57:56;;;;;;;;;;;;;;;3.33;57.76;93378.97;5033050;28;20320;-76
2021/03/25 11:00:29;;;;;;;;;;;;;;;3.07;57.04;93384.22;5032691;28;19928;-76
2021/03/25 11:02:55;;;;;;;;;;;;;;;3.03;53.58;93375.34;5032864;28;20336;-76
2021/03/25 11:05:22;;;;;;;;;;;;;;;3.25;55.84;93379.00;5032743;28;19921;-76
2021/03/25 11:07:49;;;;;;;;;;;;;;;3.68;52.53;93372.88;5032333;28;19920;-76
2021/03/25 11:10:17;;;;;;;;;;;;;;;4.37;53.22;93376.56;5032725;28;19956;-76
2021/03/25 11:12:43;;;;;;;;;;;;;;;4.90;54.82;93365.75;5032558;28;19925;-76
2021/03/25 11:15:15;;;;;;;;;;;;;;;4.46;49.76;93367.16;5032399;28;19921;-76
2021/03/25 11:17:43;;;;;;;;;;;;;;;4.79;50.82;93365.19;5032519;28;19921;-77
2021/03/25 11:20:13;;;;;;;;;;;;;;;4.71;47.58;93367.78;5032230;28;20952;-78
2021/03/25 11:22:40;;;;;;;;;;;;;;;4.94;52.12;93354.25;5032409;28;19991;-77
2021/03/25 11:25:07;;;;;;;;;;;;;;;5.12;52.53;93353.97;5032552;28;20297;-78
2021/03/25 11:27:33;;;;;;;;;;;;;;;4.84;47.43;93361.34;5032124;28;20382;-77
2021/03/25 11:30:01;;;;;;;;;;;;;;;4.62;49.98;93361.16;5031941;28;19928;-78
2021/03/25 11:32:33;;;;;;;;;;;;;;;4.50;50.96;93359.00;5032084;28;20409;-76
2021/03/25 11:35:19;;;;;;;;;;;;;;;4.37;47.87;93369.75;5014209;28;19925;-76
2021/03/25 11:37:46;;;;;;;;;;;;;;;4.54;48.91;93352.63;5009635;28;19921;-76
2021/03/25 11:40:13;;;;;;;;;;;;;;;4.22;49.02;93356.16;5012071;28;19932;-76
2021/03/25 11:42:40;;;;;;;;;;;;;;;3.97;50.00;93359.59;5011908;28;19949;-75
2021/03/25 11:45:06;;;;;;;;;;;;;;;3.72;48.42;93361.44;5011956;28;19968;-75
2021/03/25 11:47:44;;;;;;;;;;;;;;;3.56;48.44;93355.44;5011809;28;19921;-76
2021/03/25 11:50:32;;;;;;;;;;;;;;;3.52;47.29;93353.38;5011930;28;20348;-76
2021/03/25 11:52:59;;;;;;;;;;;;;;;3.71;46.96;93353.00;5011959;28;19922;-76
2021/03/25 11:55:28;;;;;;;;;;;;;;;3.47;48.56;93362.28;5012028;28;19925;-76
2021/03/25 11:57:55;;;;;;;;;;;;;;;3.44;46.14;93352.47;5011652;28;20401;-76
2021/03/25 12:00:22;;;;;;;;;;;;;;;3.53;45.49;93357.50;5011622;28;20386;-76
2021/03/25 12:02:49;;;;;;;;;;;;;;;4.00;51.81;93356.72;5030500;28;19921;-76
2021/03/25 12:05:22;;;;;;;;;;;;;;;4.53;49.81;93350.25;5019320;28;19929;-76
2021/03/25 12:08:01;;;;;;;;;;;;;;;4.67;48.96;93357.16;5020736;28;19921;-76
2021/03/25 12:10:27;;;;;;;;;;;;;;;4.59;47.01;93362.31;5027725;28;19932;-76
2021/03/25 12:12:53;;;;;;;;;;;;;;;4.41;46.57;93358.25;5022823;28;20397;-76
2021/03/25 12:15:21;;;;;;;;;;;;;;;4.41;44.56;93358.25;5019925;28;19921;-76
2021/03/25 12:17:50;;;;;;;;;;;;;;;4.38;45.07;93357.81;5028202;28;19921;-76
2021/03/25 12:20:19;;;;;;;;;;;;;;;4.67;45.63;93366.53;5031120;28;19924;-77
2021/03/25 12:22:46;;;;;;;;;;;;;;;4.22;42.65;93356.16;5031335;28;19929;-77
2021/03/25 12:25:14;;;;;;;;;;;;;;;4.40;46.07;93358.44;5031343;28;19921;-77
2021/03/25 12:27:40;;;;;;;;;;;;;;;4.82;44.38;93358.97;5030935;28;19944;-77
2021/03/25 12:30:07;;;;;;;;;;;;;;;4.84;45.63;93351.16;5031289;28;19932;-77
2021/03/25 12:32:33;;;;;;;;;;;;;;;4.34;46.13;93354.81;5030943;28;20637;-78
2021/03/25 12:35:01;;;;;;;;;;;;;;;3.81;47.60;93349.50;5030612;28;20440;-77
2021/03/25 12:37:27;;;;;;;;;;;;;;;3.81;48.28;93344.41;5030820;28;19925;-77
2021/03/25 12:39:53;;;;;;;;;;;;;;;3.80;48.02;93345.38;5030218;28;19924;-77
2021/03/25 12:42:20;;;;;;;;;;;;;;;3.68;47.23;93350.81;5030779;28;19928;-77
2021/03/25 12:44:47;;;;;;;;;;;;;;;3.86;49.58;93342.97;5030933;28;19929;-79
2021/03/25 12:47:13;;;;;;;;;;;;;;;3.81;47.31;93350.28;5020122;28;19921;-79
2021/03/25 12:49:39;;;;;;;;;;;;;;;3.63;46.59;93344.63;5010800;28;19921;-78
2021/03/25 12:52:05;;;;;;;;;;;;;;;3.51;45.48;93346.72;5010756;28;19925;-78
2021/03/25 12:54:31;;;;;;;;;;;;;;;3.50;46.05;93337.50;5010708;28;19928;-78
2021/03/25 12:56:58;;;;;;;;;;;;;;;3.71;43.72;93339.53;5010792;28;20363;-78
2021/03/25 12:59:26;;;;;;;;;;;;;;;3.56;43.05;93342.72;5010542;28;20394;-77
2021/03/25 13:01:52;;;;;;;;;;;;;;;3.84;44.00;93337.25;5011137;28;19921;-78
2021/03/25 13:04:18;;;;;;;;;;;;;;;3.69;43.14;93334.59;5010370;28;19922;-78
2021/03/25 13:06:44;;;;;;;;;;;;;;;3.71;46.39;93342.84;5010493;28;19926;-78
2021/03/25 13:09:10;;;;;;;;;;;;;;;3.37;43.62;93345.66;5010955;28;19921;-77
2021/03/25 13:11:37;;;;;;;;;;;;;;;3.35;43.63;93338.19;5010586;28;19956;-79